Flight Track Log - Related Links

Times and Time Zones

All times are in EDT time to prevent confusion due to time zone crossing. See the UAL70 flight status page for this flight to view local times or setup timezone preferences in your user account.

Time Position Orientation Groundspeed Altitude Reporting Facility
EDT Latitude Longitude Course Direction KTS MPH feet Rate Location/Type
Thu 07:10:23 PM 40.7524 -74.1296 27° Northeast 229 264 3,100  Level FlightAware ADS-B
Thu 07:10:38 PM 40.7672 -74.1212 23° Northeast 243 280 3,600 1,915 Climbing FlightAware ADS-B
Thu 07:11:10 PM 40.8013 -74.1002 25° Northeast 272 313 4,600 1,696 Climbing FlightAware ADS-B
Thu 07:11:24 PM 40.8173 -74.0892 27° Northeast 289 333 4,900 1,920 Climbing FlightAware ADS-B
Thu 07:11:35 PM 40.8299 -74.0770 36° Northeast 293 337 5,400 2,625 Climbing FlightAware ADS-B
Thu 07:11:40 PM 40.8339 -74.0703 52° Northeast 295 339 5,600 2,400 Climbing FlightAware ADS-B
Thu 07:11:45 PM 40.8376 -74.0623 59° Northeast 295 339 5,800 2,667 Climbing FlightAware ADS-B
Thu 07:11:49 PM 40.8394 -74.0566 67° East 295 339 6,000 2,727 Climbing FlightAware ADS-B
Thu 07:11:56 PM 40.8430 -74.0437 70° East 298 343 6,300 2,182 Climbing FlightAware ADS-B
Thu 07:12:11 PM 40.8486 -74.0165 75° East 303 349 6,800 1,161 Climbing FlightAware ADS-B
Thu 07:12:27 PM 40.8532 -73.9876 78° East 309 356 6,900 188 Climbing FlightAware ADS-B
Thu 07:12:43 PM 40.8578 -73.9596 78° East 307 353 6,900  Level FlightAware ADS-B
Thu 07:12:58 PM 40.8626 -73.9313 77° East 303 349 6,900 873 Level FlightAware ADS-B
Thu 07:13:38 PM 40.8740 -73.8640 77° East 307 353 7,700 1,662 Climbing FlightAware ADS-B
Thu 07:14:03 PM 40.8820 -73.8150 78° East 315 362 8,700 2,182 Climbing FlightAware ADS-B
Thu 07:14:33 PM 40.8920 -73.7620 76° East 323 372 9,700 1,200 Climbing FlightAware ADS-B
Thu 07:15:03 PM 40.9030 -73.7010 77° East 338 389 9,900 218 Climbing FlightAware ADS-B
Thu 07:15:28 PM 40.9160 -73.6530 70° East 333 383 9,900 686 Level FlightAware ADS-B
Thu 07:16:13 PM 40.9640 -73.5820 48° Northeast 358 412 10,700 1,341 Climbing FlightAware ADS-B
Thu 07:16:53 PM 41.0150 -73.5250 40° Northeast 385 443 11,800 2,025 Climbing FlightAware ADS-B
Thu 07:17:33 PM 41.0630 -73.4580 46° Northeast 394 453 13,400 2,329 Climbing FlightAware ADS-B
Thu 07:18:18 PM 41.1190 -73.3700 50° Northeast 410 472 15,100 2,118 Climbing FlightAware ADS-B
Thu 07:18:58 PM 41.1690 -73.2910 50° Northeast 420 483 16,400 2,066 Climbing FlightAware ADS-B
Thu 07:19:19 PM 41.1980 -73.2450 50° Northeast 420 483 17,200 1,200 Climbing FlightAware ADS-B
Thu 07:20:23 PM 41.2800 -73.1140 50° Northeast 470 541 18,100 1,000 Climbing FlightAware ADS-B
Thu 07:20:43 PM 41.3118 -73.0639 50° Northeast 448 516 18,600 825 Climbing FlightAware ADS-B
Thu 07:21:43 PM 41.3930 -72.9350 50° Northeast 494 568 19,200 1,429 Climbing FlightAware ADS-B
Thu 07:22:28 PM 41.4620 -72.8230 51° Northeast 508 585 21,100 2,600 Climbing FlightAware ADS-B
Thu 07:23:13 PM 41.5300 -72.7130 50° Northeast 495 570 23,100 1,482 Climbing FlightAware ADS-B
Thu 07:23:53 PM 41.5830 -72.6280 50° Northeast 495 570 23,200 1,636 Climbing FlightAware ADS-B
Thu 07:24:28 PM 41.5790 -72.6340 228° Southwest 25,300 2,486 Climbing FlightAware ADS-B
Thu 07:25:03 PM 41.6770 -72.4470 55° Northeast 500 575 26,100 1,200 Climbing FlightAware ADS-B
Thu 07:25:38 PM 41.7180 -72.3590 58° Northeast 515 593 26,700 1,200 Climbing FlightAware ADS-B
Thu 07:26:53 PM 41.8140 -72.1410 59° Northeast 524 603 28,300 1,200 Climbing FlightAware ADS-B
Thu 07:27:38 PM 41.8550 -72.0080 67° East 532 612 29,100 1,260 Climbing FlightAware ADS-B
Thu 07:28:33 PM 41.8860 -71.8360 76° East 533 613 30,400 1,453 Climbing FlightAware ADS-B
Thu 07:29:13 PM 41.9100 -71.7080 76° East 531 611 31,400 1,412 Climbing FlightAware ADS-B
Thu 07:29:58 PM 41.9350 -71.5640 77° East 530 610 32,400 1,271 Climbing FlightAware ADS-B
Thu 07:30:38 PM 41.9570 -71.4370 77° East 528 608 33,200 1,200 Climbing FlightAware ADS-B
Thu 07:31:23 PM 41.9800 -71.3070 77° East 526 605 34,100 1,200 Climbing FlightAware ADS-B
Thu 07:32:03 PM 42.0040 -71.1660 77° East 525 604 34,900 720 Climbing FlightAware ADS-B
Thu 07:32:38 PM 42.0220 -71.0600 77° East 527 606 35,000 75 Climbing FlightAware ADS-B
Thu 07:33:23 PM 42.0460 -70.9170 77° East 526 605 35,000  Level FlightAware ADS-B
Thu 07:34:03 PM 42.0690 -70.7830 77° East 526 605 35,000  Level FlightAware ADS-B
Thu 07:34:53 PM 42.0950 -70.6260 77° East 525 604 35,000  Level FlightAware ADS-B
Thu 07:35:33 PM 42.1160 -70.4990 77° East 524 603 35,000  Level FlightAware ADS-B
Thu 07:36:13 PM 42.1370 -70.3720 77° East 524 603 35,000  Level FlightAware ADS-B
Thu 07:36:53 PM 42.1580 -70.2440 77° East 525 604 35,000  Level FlightAware ADS-B
Thu 07:37:33 PM 42.1790 -70.1150 78° East 524 603 35,000  Level FlightAware ADS-B
Thu 07:38:23 PM 42.2000 -69.9830 78° East 524 603 35,000  Level FlightAware ADS-B
Thu 07:39:03 PM 42.2240 -69.8320 78° East 525 604 35,000  Level FlightAware ADS-B
Thu 07:39:43 PM 42.2450 -69.7020 78° East 524 603 35,000  Level FlightAware ADS-B
Thu 07:40:18 PM 42.2600 -69.6010 79° East 524 603 35,000  Level FlightAware ADS-B
Thu 07:41:08 PM 42.2870 -69.4300 78° East 524 603 35,000  Level FlightAware ADS-B
Thu 07:41:48 PM 42.3070 -69.3010 78° East 524 603 35,000  Level FlightAware ADS-B
Thu 07:42:28 PM 42.3250 -69.1820 78° East 524 603 35,000  Level FlightAware ADS-B
Thu 07:43:13 PM 42.3480 -69.0270 79° East 522 601 35,000  Level FlightAware ADS-B
Thu 07:43:58 PM 42.3700 -68.8830 78° East 522 601 35,000  Level FlightAware ADS-B
Thu 07:44:38 PM 42.3880 -68.7580 79° East 524 603 35,000  Level FlightAware ADS-B
Thu 07:45:18 PM 42.4070 -68.6290 79° East 524 603 35,000  Level FlightAware ADS-B
Thu 07:46:03 PM 42.4280 -68.4850 79° East 524 603 35,000  Level FlightAware ADS-B
Thu 07:46:43 PM 42.4470 -68.3550 79° East 524 603 35,000  Level FlightAware ADS-B
Thu 07:47:43 PM 42.4740 -68.1610 79° East 524 603 35,000  Level FlightAware ADS-B
Thu 07:48:23 PM 42.4910 -68.0440 79° East 525 604 35,000  Level FlightAware ADS-B
Thu 07:48:58 PM 42.5060 -67.9360 79° East 525 604 35,000  Level FlightAware ADS-B
Thu 07:49:48 PM 42.5260 -67.7990 79° East 525 604 35,000  Level FlightAware ADS-B
Thu 07:50:28 PM 42.5410 -67.6890 79° East 525 604 35,000  Level FlightAware ADS-B
Thu 07:51:08 PM 42.5570 -67.5790 79° East 525 604 35,000  Level FlightAware ADS-B
Thu 07:51:48 PM 42.5730 -67.4690 79° East 525 604 35,000  Level FlightAware ADS-B
Thu 07:52:28 PM 42.5890 -67.3590 79° East 525 604 35,000  Level FlightAware ADS-B
Thu 07:53:18 PM 42.6080 -67.2210 79° East 525 604 35,000  Level FlightAware ADS-B
Thu 07:53:58 PM 42.6240 -67.1110 79° East 525 604 35,000  Level FlightAware ADS-B
Thu 07:54:38 PM 42.6400 -67.0010 79° East 525 604 35,000  Level FlightAware ADS-B
Thu 07:55:18 PM 42.6560 -66.8900 79° East 525 604 35,000  Level FlightAware ADS-B
Thu 07:56:03 PM 42.7770 -66.5860 61° Northeast 35,000  Level FlightAware ADS-B
Thu 07:56:43 PM 42.8230 -66.4560 64° Northeast 514 592 35,000  Level FlightAware ADS-B
Thu 07:57:28 PM 42.8700 -66.3250 64° Northeast 516 594 35,000  Level FlightAware ADS-B
Thu 07:58:08 PM 42.9110 -66.2090 64° Northeast 516 594 35,000  Level FlightAware ADS-B
Thu 07:58:53 PM 42.9580 -66.0770 64° Northeast 515 593 35,000  Level FlightAware ADS-B
Thu 07:59:33 PM 42.9990 -65.9610 64° Northeast 515 593 35,000  Level FlightAware ADS-B
Thu 08:00:13 PM 43.0410 -65.8420 64° Northeast 511 588 35,000  Level FlightAware ADS-B
Thu 08:00:58 PM 43.0860 -65.7100 65° Northeast 511 588 35,000  Level FlightAware ADS-B
Thu 08:01:38 PM 43.1270 -65.5940 64° Northeast 512 589 35,000  Level FlightAware ADS-B
Thu 08:02:23 PM 43.1730 -65.4600 65° Northeast 514 592 35,000  Level FlightAware ADS-B
Thu 08:03:03 PM 43.2140 -65.3430 64° Northeast 514 592 35,000  Level FlightAware ADS-B
Thu 08:03:48 PM 43.2610 -65.2070 65° Northeast 515 593 35,000  Level FlightAware ADS-B
Thu 08:04:28 PM 43.3020 -65.0860 65° Northeast 516 594 35,000  Level FlightAware ADS-B
Thu 08:05:08 PM 43.3410 -64.9710 65° Northeast 518 596 35,000  Level FlightAware ADS-B
Thu 08:05:53 PM 43.3880 -64.8320 65° Northeast 519 597 35,000  Level FlightAware ADS-B
Thu 08:06:33 PM 43.4270 -64.7160 65° Northeast 519 597 35,000  Level FlightAware ADS-B
Thu 08:07:18 PM 43.4740 -64.5780 65° Northeast 521 600 35,000  Level FlightAware ADS-B
Thu 08:07:48 PM 43.5020 -64.4940 65° Northeast 522 601 35,000  Level FlightAware ADS-B
Thu 08:08:33 PM 43.5400 -64.3750 66° East 522 601 35,000  Level FlightAware ADS-B
Thu 08:09:23 PM 43.5820 -64.2460 66° East 522 601 35,000  Level FlightAware ADS-B
Thu 08:10:03 PM 43.6150 -64.1420 66° East 522 601 35,000  Level FlightAware ADS-B
Thu 08:10:43 PM 43.6480 -64.0380 66° East 522 601 35,000  Level FlightAware ADS-B
Thu 08:11:23 PM 43.6820 -63.9350 65° Northeast 522 601 35,000  Level FlightAware ADS-B
Thu 08:12:03 PM 43.7150 -63.8310 66° East 522 601 35,000  Level FlightAware ADS-B
Thu 08:12:48 PM 43.8040 -63.5740 64° Northeast 35,000  Level FlightAware ADS-B
Thu 08:13:20 PM 43.8167 -63.4667 64° Northeast 530 610 35,000  Level Gander Center
Thu 08:14:20 PM 43.9000 -63.2667 60° Northeast 530 610 35,000  Level Gander Center
Thu 08:15:20 PM 43.9500 -63.0833 69° East 530 610 35,000  Level Gander Center
Thu 08:16:20 PM 44.0000 -62.9000 69° East 530 610 35,000  Level Gander Center
Thu 08:17:20 PM 44.0667 -62.7167 63° Northeast 530 610 35,000  Level Gander Center
Thu 08:18:20 PM 44.1167 -62.5167 71° East 530 610 35,000  Level Gander Center
Thu 08:19:20 PM 44.1833 -62.3333 63° Northeast 530 610 35,000  Level Gander Center
Thu 08:20:20 PM 44.2333 -62.1500 69° East 530 610 35,000  Level Gander Center
Thu 08:21:20 PM 44.3000 -61.9500 65° Northeast 530 610 35,000  Level Gander Center
Thu 08:22:20 PM 44.3667 -61.7667 63° Northeast 530 610 35,000  Level Gander Center
Thu 08:23:20 PM 44.4167 -61.5667 71° East 540 621 35,000  Level Gander Center
Thu 08:24:20 PM 44.4667 -61.3833 69° East 530 610 35,000  Level Gander Center
Thu 08:25:20 PM 44.5333 -61.1833 65° Northeast 540 621 35,000  Level Gander Center
Thu 08:26:20 PM 44.5833 -61.0000 69° East 540 621 35,000  Level Gander Center
Thu 08:27:20 PM 44.6500 -60.7833 67° East 540 621 35,000  Level Gander Center
Thu 08:28:20 PM 44.6833 -60.6000 76° East 540 621 35,000  Level Gander Center
Thu 08:29:20 PM 44.7500 -60.3833 67° East 540 621 35,000  Level Gander Center
Thu 08:30:20 PM 44.8000 -60.2000 69° East 540 621 35,000  Level Gander Center
Thu 08:31:20 PM 44.8667 -60.0167 63° Northeast 540 621 35,000  Level Gander Center
Thu 08:32:20 PM 44.9167 -59.8167 70° East 540 621 35,000  Level Gander Center
Thu 08:33:20 PM 44.9667 -59.6167 70° East 540 621 35,000  Level Gander Center
Thu 08:34:20 PM 45.0333 -59.4167 65° Northeast 540 621 35,000  Level Gander Center
Thu 08:35:20 PM 45.0667 -59.2333 76° East 540 621 35,000  Level Gander Center
Thu 08:36:20 PM 45.1333 -59.0167 66° East 550 633 35,000  Level Gander Center
Thu 08:37:20 PM 45.1833 -58.8167 70° East 550 633 35,000  Level Gander Center
Thu 08:38:20 PM 45.2500 -58.6000 66° East 550 633 35,000  Level Gander Center
Thu 08:39:20 PM 45.3000 -58.3833 72° East 560 644 35,000  Level Gander Center
Thu 08:40:20 PM 45.3500 -58.1667 72° East 560 644 35,000  Level Gander Center
Thu 08:46:28 PM 45.6890 -56.9350 72° East 578 665 35,000  Level FlightAware ADS-B
Thu 08:47:08 PM 45.7240 -56.7890 71° East 576 663 35,000  Level FlightAware ADS-B
Thu 08:47:53 PM 45.7600 -56.6280 72° East 579 666 35,000  Level FlightAware ADS-B
Thu 08:48:48 PM 45.8040 -56.4260 73° East 576 663 35,000  Level FlightAware ADS-B
Thu 08:49:33 PM 45.8380 -56.2650 73° East 575 662 35,000  Level FlightAware ADS-B
Thu 08:50:03 PM 45.8590 -56.1650 73° East 573 659 35,000  Level FlightAware ADS-B
Thu 08:50:58 PM 45.9050 -55.9510 73° East 567 652 35,000  Level FlightAware ADS-B
Thu 08:51:38 PM 45.9350 -55.8080 73° East 564 649 35,000  Level FlightAware ADS-B
Thu 08:52:13 PM 45.9600 -55.6920 73° East 563 648 35,000  Level FlightAware ADS-B
Thu 08:52:58 PM 45.9900 -55.5480 73° East 563 648 35,000  Level FlightAware ADS-B
Thu 08:53:38 PM 46.0160 -55.4260 73° East 563 648 35,000  Level FlightAware ADS-B
Thu 08:54:43 PM 46.0690 -55.1690 73° East 563 648 35,000  Level FlightAware ADS-B
Thu 08:55:23 PM 46.1010 -55.0050 74° East 565 650 35,000  Level FlightAware ADS-B
Thu 08:55:58 PM 46.1240 -54.8920 74° East 564 649 35,000  Level FlightAware ADS-B
Thu 08:56:43 PM 46.1590 -54.7160 74° East 566 651 35,000  Level FlightAware ADS-B
Thu 08:57:28 PM 46.1910 -54.5510 74° East 567 652 35,000  Level FlightAware ADS-B
Thu 08:58:08 PM 46.2200 -54.4020 74° East 569 655 35,000  Level FlightAware ADS-B
Thu 08:58:53 PM 46.2510 -54.2420 74° East 569 655 35,000  Level FlightAware ADS-B
Thu 08:59:33 PM 46.2800 -54.0940 74° East 571 657 35,000  Level FlightAware ADS-B
Thu 09:00:18 PM 46.3120 -53.9270 74° East 573 659 35,000  Level FlightAware ADS-B
Thu 09:00:58 PM 46.3390 -53.7850 75° East 574 661 35,000  Level FlightAware ADS-B
Thu 09:01:38 PM 46.3680 -53.6320 75° East 573 659 35,000  Level FlightAware ADS-B
Thu 09:02:23 PM 46.3990 -53.4670 75° East 574 661 35,000  Level FlightAware ADS-B
Thu 09:03:03 PM 46.4260 -53.3180 75° East 576 663 35,000  Level FlightAware ADS-B
Thu 09:03:48 PM 46.4570 -53.1500 75° East 576 663 35,000  Level FlightAware ADS-B
Thu 09:04:28 PM 46.4830 -53.0040 75° East 577 664 35,000  Level FlightAware ADS-B
Thu 09:05:23 PM 46.5210 -52.7920 75° East 577 664 35,000  Level FlightAware ADS-B
Thu 09:06:08 PM 46.5500 -52.6300 75° East 580 667 35,000  Level FlightAware ADS-B
Thu 09:06:48 PM 46.5770 -52.4760 76° East 576 663 35,000  Level FlightAware ADS-B
Thu 09:07:28 PM 46.6030 -52.3280 76° East 574 661 35,000  Level FlightAware ADS-B
Thu 09:08:13 PM 46.6330 -52.1570 76° East 573 659 35,000  Level FlightAware ADS-B
Thu 09:08:53 PM 46.6580 -52.0080 76° East 571 657 35,000  Level FlightAware ADS-B
Thu 09:09:33 PM 46.6840 -51.8570 76° East 570 656 35,000  Level FlightAware ADS-B
Thu 09:10:18 PM 46.7110 -51.6970 76° East 570 656 35,000  Level FlightAware ADS-B
Thu 09:10:58 PM 46.7360 -51.5450 76° East 568 654 35,000  Level FlightAware ADS-B
Thu 09:11:38 PM 46.7610 -51.4000 76° East 566 651 35,000  Level FlightAware ADS-B
Thu 09:12:23 PM 46.7860 -51.2510 76° East 566 651 35,000  Level FlightAware ADS-B
Thu 09:13:03 PM 46.8070 -51.1250 76° East 566 651 35,000  Level FlightAware ADS-B
Thu 09:13:43 PM 46.8290 -50.9980 76° East 566 651 35,000  Level FlightAware ADS-B
Thu 09:14:23 PM 46.8500 -50.8720 76° East 566 651 35,000  Level FlightAware ADS-B
Thu 09:15:13 PM 46.8770 -50.7140 76° East 566 651 35,000  Level FlightAware ADS-B
Thu 09:15:53 PM 46.8990 -50.5880 76° East 566 651 35,000  Level FlightAware ADS-B
Thu 09:16:33 PM 46.9200 -50.4610 76° East 566 651 35,000  Level FlightAware ADS-B
Thu 09:17:13 PM 46.9420 -50.3350 76° East 566 651 35,000  Level FlightAware ADS-B
Thu 09:17:53 PM 46.9630 -50.2080 76° East 566 651 35,000  Level FlightAware ADS-B
Thu 09:18:43 PM 46.9900 -50.0500 76° East 566 651 35,000  Level FlightAware ADS-B
Thu 09:19:23 PM 47.0120 -49.9230 76° East 566 651 35,000  Level FlightAware ADS-B
Thu 09:20:03 PM 47.0330 -49.7970 76° East 566 651 35,000  Level FlightAware ADS-B
Thu 09:20:43 PM 47.0550 -49.6700 76° East 566 651 35,000  Level FlightAware ADS-B
Thu 09:21:23 PM 47.0760 -49.5430 76° East 566 651 35,000  Level FlightAware ADS-B
Thu 09:22:20 PM 47.0833 -48.9667 76° East 560 644 35,000  Level Gander Center
Thu 09:23:20 PM 47.1167 -48.7333 78° East 550 633 35,000  Level Gander Center
Thu 09:24:20 PM 47.1500 -48.5333 76° East 560 644 35,000  Level Gander Center
Thu 09:26:20 PM 47.2000 -48.0667 81° East 540 621 35,000  Level Gander Center
Thu 09:28:00 PM 47.0000 -50.0000 78° East 534 615 35,000  Level ETMS Enhanced Traffic Management System
Thu 09:28:20 PM 47.2500 -47.6333 78° East 540 621 35,000  Level Gander Center
Thu 09:29:20 PM 47.2833 -47.4167 77° East 540 621 35,000  Level Gander Center
Thu 09:30:20 PM 47.3000 -47.2167 83° East 540 621 35,000  Level Gander Center
Thu 09:31:20 PM 47.3333 -46.9833 78° East 540 621 35,000  Level Gander Center
Thu 09:32:20 PM 47.3667 -46.7833 76° East 530 610 35,000  Level Gander Center
Thu 09:35:00 PM 47.4040 -46.4793 80° East  Level FlightAware Approximate
Thu 09:42:00 PM 47.5643 -45.0859 80° East  Level FlightAware Approximate
Thu 09:43:00 PM 47.5858 -44.8862 81° East  Level FlightAware Approximate
Thu 09:44:00 PM 47.6070 -44.6863 81° East  Level FlightAware Approximate
Thu 09:45:00 PM 47.6278 -44.4862 81° East  Level FlightAware Approximate
Thu 09:46:00 PM 47.6483 -44.2860 81° East  Level FlightAware Approximate
Thu 09:47:00 PM 47.6684 -44.0856 81° East  Level FlightAware Approximate
Thu 09:48:00 PM 47.6881 -43.8851 82° East  Level FlightAware Approximate
Thu 09:49:00 PM 47.7076 -43.6844 82° East  Level FlightAware Approximate
Thu 09:50:00 PM 47.7266 -43.4836 82° East  Level FlightAware Approximate
Thu 09:51:00 PM 47.7453 -43.2826 82° East  Level FlightAware Approximate
Thu 09:52:00 PM 47.7637 -43.0815 82° East  Level FlightAware Approximate
Thu 09:53:00 PM 47.7817 -42.8803 82° East  Level FlightAware Approximate
Thu 09:54:00 PM 47.7994 -42.6789 82° East  Level FlightAware Approximate
Thu 09:55:00 PM 47.8167 -42.4774 83° East  Level FlightAware Approximate
Thu 09:56:00 PM 47.8337 -42.2757 83° East  Level FlightAware Approximate
Thu 09:57:00 PM 47.8503 -42.0739 83° East  Level FlightAware Approximate
Thu 09:58:00 PM 47.8666 -41.8720 83° East  Level FlightAware Approximate
Thu 09:59:00 PM 47.8825 -41.6700 83° East  Level FlightAware Approximate
Thu 10:00:00 PM 47.8980 -41.4678 83° East  Level FlightAware Approximate
Thu 10:01:00 PM 47.9132 -41.2655 84° East  Level FlightAware Approximate
Thu 10:02:00 PM 47.9280 -41.0631 84° East  Level FlightAware Approximate
Thu 10:03:00 PM 47.9425 -40.8606 84° East  Level FlightAware Approximate
Thu 10:04:00 PM 47.9566 -40.6580 84° East  Level FlightAware Approximate
Thu 10:05:00 PM 47.9704 -40.4552 84° East  Level FlightAware Approximate
Thu 10:05:54 PM 48.0000 -40.0000 78° East 512 589 35,000  Level ETMS Enhanced Traffic Management System
Thu 10:06:00 PM 47.9838 -40.2524 84° East  Level FlightAware Approximate
Thu 10:07:00 PM 47.9969 -40.0494 84° East  Level FlightAware Approximate
Thu 10:08:00 PM 48.0219 -39.8493 78° East  Level FlightAware Approximate
Thu 10:09:00 PM 48.0506 -39.6497 78° East  Level FlightAware Approximate
Thu 10:10:00 PM 48.0789 -39.4500 78° East  Level FlightAware Approximate
Thu 10:11:00 PM 48.1068 -39.2500 78° East  Level FlightAware Approximate
Thu 10:12:00 PM 48.2581 -38.1182 79° East 512 589 35,000  Level FlightAware Transoceanic
Thu 10:13:00 PM 48.2848 -37.9079 79° East 512 589 35,000  Level FlightAware Transoceanic
Thu 10:14:00 PM 48.3112 -37.6975 79° East 512 589 35,000  Level FlightAware Transoceanic
Thu 10:15:00 PM 48.3372 -37.4868 80° East 512 589 35,000  Level FlightAware Transoceanic
Thu 10:16:00 PM 48.3628 -37.2759 80° East 512 589 35,000  Level FlightAware Transoceanic
Thu 10:17:00 PM 48.3881 -37.0648 80° East 512 589 35,000  Level FlightAware Transoceanic
Thu 10:18:00 PM 48.4129 -36.8535 80° East 512 589 35,000  Level FlightAware Transoceanic
Thu 10:19:00 PM 48.4374 -36.6420 80° East 512 589 35,000  Level FlightAware Transoceanic
Thu 10:20:00 PM 48.4614 -36.4303 80° East 512 589 35,000  Level FlightAware Transoceanic
Thu 10:21:00 PM 48.4851 -36.2184 81° East 512 589 35,000  Level FlightAware Transoceanic
Thu 10:22:00 PM 48.5084 -36.0063 81° East 512 589 35,000  Level FlightAware Transoceanic
Thu 10:23:00 PM 48.5313 -35.7940 81° East 512 589 35,000  Level FlightAware Transoceanic
Thu 10:24:00 PM 48.5538 -35.5815 81° East 512 589 35,000  Level FlightAware Transoceanic
Thu 10:25:00 PM 48.5759 -35.3688 81° East 512 589 35,000  Level FlightAware Transoceanic
Thu 10:26:00 PM 48.5977 -35.1559 81° East 512 589 35,000  Level FlightAware Transoceanic
Thu 10:27:00 PM 48.6190 -34.9429 81° East 512 589 35,000  Level FlightAware Transoceanic
Thu 10:28:00 PM 48.6399 -34.7297 82° East 512 589 35,000  Level FlightAware Transoceanic
Thu 10:29:00 PM 48.6605 -34.5163 82° East 512 589 35,000  Level FlightAware Transoceanic
Thu 10:30:00 PM 48.6806 -34.3027 82° East 512 589 35,000  Level FlightAware Transoceanic
Thu 10:31:00 PM 48.7004 -34.0890 82° East 512 589 35,000  Level FlightAware Transoceanic
Thu 10:32:00 PM 48.7197 -33.8751 82° East 512 589 35,000  Level FlightAware Transoceanic
Thu 10:33:00 PM 48.7387 -33.6610 82° East 512 589 35,000  Level FlightAware Transoceanic
Thu 10:34:00 PM 48.7573 -33.4468 83° East 512 589 35,000  Level FlightAware Transoceanic
Thu 10:35:00 PM 48.7755 -33.2324 83° East 512 589 35,000  Level FlightAware Transoceanic
Thu 10:36:00 PM 48.7932 -33.0178 83° East 512 589 35,000  Level FlightAware Transoceanic
Thu 10:37:00 PM 48.8106 -32.8032 83° East 512 589 35,000  Level FlightAware Transoceanic
Thu 10:38:00 PM 48.8276 -32.5883 83° East 512 589 35,000  Level FlightAware Transoceanic
Thu 10:39:00 PM 48.8442 -32.3733 83° East 512 589 35,000  Level FlightAware Transoceanic
Thu 10:40:00 PM 48.8603 -32.1582 84° East 512 589 35,000  Level FlightAware Transoceanic
Thu 10:41:00 PM 48.8761 -31.9430 84° East 512 589 35,000  Level FlightAware Transoceanic
Thu 10:42:00 PM 48.8915 -31.7276 84° East 512 589 35,000  Level FlightAware Transoceanic
Thu 10:43:00 PM 48.9065 -31.5120 84° East 512 589 35,000  Level FlightAware Transoceanic
Thu 10:44:00 PM 48.9210 -31.2964 84° East 512 589 35,000  Level FlightAware Transoceanic
Thu 10:45:00 PM 48.9352 -31.0806 84° East 512 589 35,000  Level FlightAware Transoceanic
Thu 10:46:00 PM 48.9490 -30.8647 85° East 512 589 35,000  Level FlightAware Transoceanic
Thu 10:47:00 PM 48.9623 -30.6487 85° East 512 589 35,000  Level FlightAware Transoceanic
Thu 10:48:00 PM 48.9753 -30.4326 85° East 512 589 35,000  Level FlightAware Transoceanic
Thu 10:49:00 PM 48.9879 -30.2163 85° East 512 589 35,000  Level FlightAware Transoceanic
Thu 10:50:00 PM 48.9995 -30.0091 85° East  Level FlightAware Approximate
Thu 10:51:00 PM 49.0107 -29.8018 85° East  Level FlightAware Approximate
Thu 10:52:00 PM 49.0446 -29.8229 69° East  Level FlightAware Approximate
Thu 10:53:00 PM 49.0932 -29.6283 69° East  Level FlightAware Approximate
Thu 10:53:00 PM 49.0000 -30.0000 69° East 484 557 35,000  Level ETMS Enhanced Traffic Management System
Thu 10:54:00 PM 49.1415 -29.4333 69° East  Level FlightAware Approximate
Thu 10:55:00 PM 49.1894 -29.2379 69° East  Level FlightAware Approximate
Thu 10:56:00 PM 49.2371 -29.0422 69° East  Level FlightAware Approximate
Thu 10:57:00 PM 49.2844 -28.8460 70° East  Level FlightAware Approximate
Thu 10:58:00 PM 49.3313 -28.6495 70° East  Level FlightAware Approximate
Thu 10:59:00 PM 49.3308 -28.6518 70° East 484 557 35,000  Level FlightAware Transoceanic
Thu 11:00:00 PM 49.3768 -28.4577 70° East 484 557 35,000  Level FlightAware Transoceanic
Thu 11:01:00 PM 49.4224 -28.2633 70° East 484 557 35,000  Level FlightAware Transoceanic
Thu 11:02:00 PM 49.4677 -28.0685 70° East 484 557 35,000  Level FlightAware Transoceanic
Thu 11:03:00 PM 49.5127 -27.8733 71° East 484 557 35,000  Level FlightAware Transoceanic
Thu 11:04:00 PM 49.5574 -27.6778 71° East 484 557 35,000  Level FlightAware Transoceanic
Thu 11:05:00 PM 49.6017 -27.4819 71° East 484 557 35,000  Level FlightAware Transoceanic
Thu 11:06:00 PM 49.6457 -27.2857 71° East 484 557 35,000  Level FlightAware Transoceanic
Thu 11:07:00 PM 49.6893 -27.0891 71° East 484 557 35,000  Level FlightAware Transoceanic
Thu 11:08:00 PM 49.7327 -26.8922 71° East 484 557 35,000  Level FlightAware Transoceanic
Thu 11:09:00 PM 49.7757 -26.6949 71° East 484 557 35,000  Level FlightAware Transoceanic
Thu 11:10:00 PM 49.8183 -26.4973 72° East 484 557 35,000  Level FlightAware Transoceanic
Thu 11:11:00 PM 49.8607 -26.2993 72° East 484 557 35,000  Level FlightAware Transoceanic
Thu 11:12:00 PM 49.9026 -26.1010 72° East 484 557 35,000  Level FlightAware Transoceanic
Thu 11:13:00 PM 49.9443 -25.9023 72° East 484 557 35,000  Level FlightAware Transoceanic
Thu 11:14:00 PM 49.9856 -25.7033 72° East 484 557 35,000  Level FlightAware Transoceanic
Thu 11:15:00 PM 50.0266 -25.5040 72° East 484 557 35,000  Level FlightAware Transoceanic
Thu 11:16:00 PM 50.0672 -25.3043 72° East 484 557 35,000  Level FlightAware Transoceanic
Thu 11:17:00 PM 50.1075 -25.1043 73° East 484 557 35,000  Level FlightAware Transoceanic
Thu 11:18:00 PM 50.1474 -24.9039 73° East 484 557 35,000  Level FlightAware Transoceanic
Thu 11:19:00 PM 50.1870 -24.7032 73° East 484 557 35,000  Level FlightAware Transoceanic
Thu 11:20:00 PM 50.2263 -24.5022 73° East 484 557 35,000  Level FlightAware Transoceanic
Thu 11:21:00 PM 50.2652 -24.3008 73° East 484 557 35,000  Level FlightAware Transoceanic
Thu 11:22:00 PM 50.3037 -24.0992 73° East 484 557 35,000  Level FlightAware Transoceanic
Thu 11:23:00 PM 50.3419 -23.8972 74° East 484 557 35,000  Level FlightAware Transoceanic
Thu 11:24:00 PM 50.3798 -23.6948 74° East 484 557 35,000  Level FlightAware Transoceanic
Thu 11:25:00 PM 50.4173 -23.4922 74° East 484 557 35,000  Level FlightAware Transoceanic
Thu 11:26:00 PM 50.4544 -23.2892 74° East 484 557 35,000  Level FlightAware Transoceanic
Thu 11:27:00 PM 50.4912 -23.0859 74° East 484 557 35,000  Level FlightAware Transoceanic
Thu 11:28:00 PM 50.5276 -22.8823 74° East 484 557 35,000  Level FlightAware Transoceanic
Thu 11:29:00 PM 50.5637 -22.6784 75° East 484 557 35,000  Level FlightAware Transoceanic
Thu 11:30:00 PM 50.5994 -22.4742 75° East 484 557 35,000  Level FlightAware Transoceanic
Thu 11:31:00 PM 50.6348 -22.2696 75° East 484 557 35,000  Level FlightAware Transoceanic
Thu 11:32:00 PM 50.6698 -22.0648 75° East 484 557 35,000  Level FlightAware Transoceanic
Thu 11:33:00 PM 50.7045 -21.8596 75° East 484 557 35,000  Level FlightAware Transoceanic
Thu 11:34:00 PM 50.7388 -21.6542 75° East 484 557 35,000  Level FlightAware Transoceanic
Thu 11:35:00 PM 50.7727 -21.4484 75° East 484 557 35,000  Level FlightAware Transoceanic
Thu 11:36:00 PM 50.8063 -21.2424 76° East 484 557 35,000  Level FlightAware Transoceanic
Thu 11:37:00 PM 50.8395 -21.0360 76° East 484 557 35,000  Level FlightAware Transoceanic
Thu 11:38:00 PM 50.8723 -20.8294 76° East 484 557 35,000  Level FlightAware Transoceanic
Thu 11:39:00 PM 50.9048 -20.6225 76° East 484 557 35,000  Level FlightAware Transoceanic
Thu 11:40:00 PM 50.9369 -20.4153 76° East 484 557 35,000  Level FlightAware Transoceanic
Thu 11:41:00 PM 50.9686 -20.2078 76° East 484 557 35,000  Level FlightAware Transoceanic
Thu 11:42:00 PM 51.0005 -19.9970 76° East  Level FlightAware Approximate
Thu 11:43:00 PM 51.0008 -19.9940 78° East  Level FlightAware Approximate
Thu 11:44:00 PM 51.0281 -19.7815 78° East  Level FlightAware Approximate
Thu 11:45:00 PM 51.0550 -19.5687 79° East  Level FlightAware Approximate
Thu 11:46:00 PM 51.0815 -19.3557 79° East  Level FlightAware Approximate
Thu 11:47:00 PM 51.1076 -19.1424 79° East  Level FlightAware Approximate
Thu 11:48:00 PM 51.1333 -18.9289 79° East  Level FlightAware Approximate
Thu 11:49:00 PM 51.1586 -18.7152 79° East  Level FlightAware Approximate
Thu 11:50:00 PM 51.1836 -18.5012 79° East  Level FlightAware Approximate
Thu 11:51:00 PM 51.2082 -18.2871 80° East  Level FlightAware Approximate
Thu 11:52:00 PM 51.2323 -18.0727 80° East  Level FlightAware Approximate
Thu 11:53:00 PM 51.2561 -17.8580 80° East  Level FlightAware Approximate
Thu 11:54:00 PM 51.2795 -17.6432 80° East  Level FlightAware Approximate
Thu 11:55:00 PM 51.3025 -17.4281 80° East  Level FlightAware Approximate
Thu 11:56:00 PM 51.3251 -17.2128 80° East  Level FlightAware Approximate
Thu 11:57:00 PM 51.3473 -16.9973 81° East  Level FlightAware Approximate
Thu 11:58:00 PM 51.3691 -16.7816 81° East  Level FlightAware Approximate
Thu 11:59:00 PM 51.3905 -16.5657 81° East  Level FlightAware Approximate
Fri 12:00:00 AM 51.4115 -16.3496 81° East  Level FlightAware Approximate
Fri 12:01:00 AM 51.4321 -16.1332 81° East  Level FlightAware Approximate
Fri 12:02:00 AM 51.4523 -15.9167 81° East  Level FlightAware Approximate
Fri 12:03:00 AM 51.4722 -15.7001 82° East  Level FlightAware Approximate
Fri 12:04:00 AM 51.4916 -15.4832 82° East  Level FlightAware Approximate
Fri 12:05:00 AM 51.5106 -15.2661 82° East  Level FlightAware Approximate
Fri 12:06:00 AM 51.5292 -15.0489 82° East  Level FlightAware Approximate
Fri 12:07:00 AM 51.5476 -14.8315 82° East  Level FlightAware Approximate
Fri 12:08:00 AM 51.5656 -14.6139 82° East  Level FlightAware Approximate
Fri 12:09:00 AM 51.5832 -14.3962 82° East  Level FlightAware Approximate
Fri 12:10:00 AM 51.6004 -14.1784 83° East  Level FlightAware Approximate
Fri 12:11:00 AM 51.6172 -13.9603 83° East  Level FlightAware Approximate
Fri 12:12:00 AM 51.6336 -13.7421 83° East  Level FlightAware Approximate
Fri 12:13:00 AM 51.6496 -13.5237 83° East  Level FlightAware Approximate
Fri 12:14:00 AM 51.6652 -13.3052 83° East  Level FlightAware Approximate
Fri 12:15:00 AM 51.6804 -13.0866 84° East  Level FlightAware Approximate
Fri 12:16:00 AM 51.6952 -12.8678 84° East  Level FlightAware Approximate
Fri 12:17:00 AM 51.7096 -12.6488 84° East  Level FlightAware Approximate
Fri 12:18:00 AM 51.7235 -12.4297 84° East  Level FlightAware Approximate
Fri 12:19:00 AM 51.7371 -12.2105 84° East  Level FlightAware Approximate
Fri 12:20:00 AM 51.7503 -11.9911 84° East  Level FlightAware Approximate
Fri 12:21:00 AM 51.7630 -11.7717 85° East  Level FlightAware Approximate
Fri 12:22:00 AM 51.7753 -11.5521 85° East  Level FlightAware Approximate
Fri 12:23:00 AM 51.7873 -11.3324 85° East  Level FlightAware Approximate
Fri 12:24:00 AM 51.7988 -11.1125 85° East  Level FlightAware Approximate
Fri 12:25:00 AM 51.8099 -10.8926 85° East  Level FlightAware Approximate
Fri 12:26:00 AM 51.8206 -10.6725 85° East  Level FlightAware Approximate
Fri 12:27:00 AM 51.8309 -10.4524 86° East  Level FlightAware Approximate
Fri 12:28:00 AM 51.8407 -10.2321 86° East  Level FlightAware Approximate
Fri 12:28:33 AM 51.4930 -10.8400 86° East 469 540 35,000  Level FlightAware ADS-B
Fri 12:29:00 AM 51.8502 -10.0118 86° East  Level FlightAware Approximate
Fri 12:29:08 AM 51.5060 -10.7220 80° East 469 540 35,000  Level FlightAware ADS-B
Fri 12:29:58 AM 51.5250 -10.5510 80° East 468 539 35,000  Level FlightAware ADS-B
Fri 12:30:38 AM 51.5390 -10.4150 81° East 469 540 35,000  Level FlightAware ADS-B
Fri 12:31:18 AM 51.5520 -10.2920 80° East 470 541 35,000  Level FlightAware ADS-B
Fri 12:32:03 AM 51.5680 -10.1390 80° East 470 541 35,000  Level FlightAware ADS-B
Fri 12:32:48 AM 51.5860 -9.9710 80° East 472 543 35,000  Level FlightAware ADS-B
Fri 12:33:28 AM 51.6000 -9.8290 81° East 472 543 35,000  Level FlightAware ADS-B
Fri 12:34:53 AM 51.6300 -9.5330 81° East 476 548 35,000  Level FlightAware ADS-B
Fri 12:35:33 AM 51.6440 -9.3910 81° East 477 549 35,000  Level FlightAware ADS-B
Fri 12:36:13 AM 51.6570 -9.2500 81° East 477 549 35,000 -811 Level FlightAware ADS-B
Fri 12:37:24 AM 51.6751 -8.9737 81° East 460 529 33,500 -1,011 Descending FlightAware UK
Fri 12:37:42 AM 51.6807 -8.9105 82° East 462 532 33,500  Level FlightAware UK
Fri 12:38:00 AM 51.6862 -8.8474 82° East 464 534 33,500  Level FlightAware UK
Fri 12:38:18 AM 51.6917 -8.7843 82° East 464 534 33,500  Level FlightAware UK
Fri 12:38:36 AM 51.6974 -8.7212 82° East 462 532 33,500  Level FlightAware UK
Fri 12:38:54 AM 51.7028 -8.6582 82° East 464 534 33,500  Level FlightAware UK
Fri 12:39:12 AM 51.7082 -8.5952 82° East 460 529 33,500  Level FlightAware UK
Fri 12:39:30 AM 51.7134 -8.5320 82° East 458 527 33,500  Level FlightAware UK
Fri 12:39:48 AM 51.7186 -8.4689 82° East 456 525 33,500 5,000 Level FlightAware UK
Fri 12:39:48 AM 51.7250 -8.5220 82° East 477 549 35,000  Climbing FlightAware ADS-B
Fri 12:40:06 AM 51.7239 -8.4057 82° East 458 527 33,500 -2,500 Descending FlightAware UK
Fri 12:40:24 AM 51.7291 -8.3425 82° East 460 529 33,500  Level FlightAware UK
Fri 12:40:42 AM 51.7343 -8.2794 82° East 464 534 33,500 3,103 Level FlightAware UK
Fri 12:40:53 AM 51.7460 -8.2780 82° East 477 549 35,000  Climbing FlightAware ADS-B
Fri 12:41:12 AM 51.7431 -8.1734 82° East 462 532 33,500 -2,432 Descending FlightAware UK
Fri 12:41:30 AM 51.7482 -8.1102 83° East 460 529 33,500  Level FlightAware UK
Fri 12:41:48 AM 51.7533 -8.0471 83° East 462 532 33,500  Level FlightAware UK
Fri 12:42:06 AM 51.7583 -7.9840 83° East 460 529 33,500 4,500 Level FlightAware UK
Fri 12:42:08 AM 51.7690 -8.0180 83° East 476 548 35,000  Climbing FlightAware ADS-B
Fri 12:42:24 AM 51.7630 -7.9209 83° East 458 527 33,500 -2,647 Descending FlightAware UK
Fri 12:42:42 AM 51.7678 -7.8579 83° East 456 525 33,500 3,750 Level FlightAware UK
Fri 12:42:48 AM 51.7800 -7.8820 83° East 476 548 35,000  Climbing FlightAware ADS-B
Fri 12:43:06 AM 51.7743 -7.7738 83° East 456 525 33,500 -2,500 Descending FlightAware UK
Fri 12:43:24 AM 51.7790 -7.7107 83° East 454 522 33,500 4,091 Level FlightAware UK
Fri 12:43:28 AM 51.7930 -7.7200 83° East 476 548 35,000  Climbing FlightAware ADS-B
Fri 12:43:48 AM 51.7856 -7.6257 83° East 456 525 33,500 -2,368 Descending FlightAware UK
Fri 12:44:06 AM 51.7905 -7.5625 83° East 458 527 33,500 3,600 Level FlightAware UK
Fri 12:44:13 AM 51.8060 -7.5680 83° East 477 549 35,000  Climbing FlightAware ADS-B
Fri 12:44:30 AM 51.7966 -7.4778 83° East 456 525 33,500 -2,571 Descending FlightAware UK
Fri 12:44:48 AM 51.8012 -7.4142 83° East 456 525 33,500  Level FlightAware UK
Fri 12:45:06 AM 51.8056 -7.3505 84° East 458 527 33,500  Level FlightAware UK
Fri 12:45:24 AM 51.8102 -7.2867 83° East 458 527 33,500  Level FlightAware UK
Fri 12:45:42 AM 51.8159 -7.2219 82° East 456 525 33,500 3,750 Level FlightAware UK
Fri 12:45:48 AM 51.8300 -7.2550 82° East 480 552 35,000  Climbing FlightAware ADS-B
Fri 12:46:06 AM 51.8221 -7.1365 82° East 456 525 33,500 -2,500 Descending FlightAware UK
Fri 12:46:24 AM 51.8269 -7.0731 83° East 458 527 33,500 3,333 Level FlightAware UK
Fri 12:46:33 AM 51.8440 -7.0710 83° East 483 556 35,000  Climbing FlightAware ADS-B
Fri 12:46:48 AM 51.8331 -6.9868 83° East 460 529 33,500 -2,727 Descending FlightAware UK
Fri 12:47:06 AM 51.8374 -6.9224 84° East 462 532 33,500 3,600 Level FlightAware UK
Fri 12:47:13 AM 51.8550 -6.9180 84° East 484 557 35,000  Climbing FlightAware ADS-B
Fri 12:47:30 AM 51.8432 -6.8365 84° East 464 534 33,500 -2,571 Descending FlightAware UK
Fri 12:47:48 AM 51.8475 -6.7719 84° East 464 534 33,500 3,913 Level FlightAware UK
Fri 12:47:53 AM 51.8660 -6.7750 84° East 484 557 35,000  Climbing FlightAware ADS-B
Fri 12:48:12 AM 51.8534 -6.6859 84° East 460 529 33,500 -2,432 Descending FlightAware UK
Fri 12:48:30 AM 51.8578 -6.6207 84° East 460 529 33,500 3,462 Level FlightAware UK
Fri 12:48:38 AM 51.8770 -6.6130 84° East 485 558 35,000  Climbing FlightAware ADS-B
Fri 12:48:54 AM 51.8638 -6.5347 84° East 462 532 33,500 -2,647 Descending FlightAware UK
Fri 12:49:12 AM 51.8682 -6.4702 84° East 464 534 33,500 3,750 Level FlightAware UK
Fri 12:49:18 AM 51.8870 -6.4700 84° East 484 557 35,000  Climbing FlightAware ADS-B
Fri 12:49:36 AM 51.8738 -6.3841 84° East 462 532 33,500 -2,500 Descending FlightAware UK
Fri 12:49:54 AM 51.8780 -6.3195 84° East 464 534 33,500  Level FlightAware UK
Fri 12:49:58 AM 51.8960 -6.3390 84° East 35,000  Climbing FlightAware ADS-B
Fri 12:50:18 AM 51.8834 -6.2334 84° East 462 532 33,500  Descending FlightAware UK
Fri 12:50:33 AM 51.9040 -6.2100 84° East 484 557 35,000  Climbing FlightAware ADS-B
Fri 12:50:36 AM 51.8875 -6.1689 84° East 464 534 33,500 -6,000 Descending FlightAware UK
Fri 12:50:48 AM 51.8902 -6.1258 84° East 464 534 33,500  Level FlightAware UK
Fri 12:51:06 AM 51.8941 -6.0613 84° East 464 534 33,500  Level FlightAware UK
Fri 12:51:25 AM 51.8983 -5.9961 84° East 464 534 33,500 4,091 Level FlightAware UK
Fri 12:51:28 AM 51.9170 -6.0130 84° East 484 557 35,000  Climbing FlightAware ADS-B
Fri 12:51:43 AM 51.9023 -5.9315 84° East 462 532 33,500  Descending FlightAware UK
Fri 12:51:53 AM 51.9230 -5.9160 84° East 484 557 35,000  Climbing FlightAware ADS-B
Fri 12:52:12 AM 51.9086 -5.8245 84° East 464 534 33,500 -2,368 Descending FlightAware UK
Fri 12:52:31 AM 51.9123 -5.7592 85° East 464 534 33,500 4,286 Level FlightAware UK
Fri 12:52:33 AM 51.9330 -5.7650 85° East 484 557 35,000  Climbing FlightAware ADS-B
Fri 12:52:48 AM 51.9163 -5.6952 85° East 464 534 33,500 -2,727 Descending FlightAware UK
Fri 12:53:06 AM 51.9201 -5.6306 84° East 462 532 33,500 3,000 Level FlightAware UK
Fri 12:53:18 AM 51.9420 -5.6030 84° East 483 556 35,000  Climbing FlightAware ADS-B
Fri 12:53:37 AM 51.9266 -5.5225 84° East 464 534 33,500 -2,432 Descending FlightAware UK
Fri 12:53:55 AM 51.9304 -5.4582 84° East 464 534 33,500 4,286 Level FlightAware UK
Fri 12:53:58 AM 51.9510 -5.4630 84° East 483 556 35,000  Climbing FlightAware ADS-B
Fri 12:54:13 AM 51.9341 -5.3939 84° East 464 534 33,500 -2,727 Descending FlightAware UK
Fri 12:54:31 AM 51.9375 -5.3288 85° East 464 534 33,500 3,000 Level FlightAware UK
Fri 12:54:43 AM 51.9600 -5.3060 85° East 482 555 35,000  Climbing FlightAware ADS-B
Fri 12:55:01 AM 51.9431 -5.2214 85° East 462 532 33,500 -2,500 Descending FlightAware UK
Fri 12:55:19 AM 51.9467 -5.1577 85° East 462 532 33,500 4,091 Level FlightAware UK
Fri 12:55:23 AM 51.9670 -5.1610 85° East 480 552 35,000  Climbing FlightAware ADS-B
Fri 12:55:43 AM 51.9516 -5.0713 85° East 460 529 33,500 -2,368 Descending FlightAware UK
Fri 12:56:01 AM 51.9550 -5.0080 85° East 458 527 33,500 3,600 Level FlightAware UK
Fri 12:56:08 AM 51.9760 -4.9990 85° East 480 552 35,000  Climbing FlightAware ADS-B
Fri 12:56:25 AM 51.9597 -4.9219 85° East 458 527 33,500 -2,571 Descending FlightAware UK
Fri 12:56:43 AM 51.9631 -4.8585 85° East 458 527 33,500 3,913 Level FlightAware UK
Fri 12:56:48 AM 51.9840 -4.8580 85° East 480 552 35,000  Climbing FlightAware ADS-B
Fri 12:57:07 AM 51.9675 -4.7722 85° East 458 527 33,500 -2,432 Descending FlightAware UK
Fri 12:57:25 AM 51.9707 -4.7078 85° East 458 527 33,500 4,286 Level FlightAware UK
Fri 12:57:28 AM 51.9910 -4.7120 85° East 480 552 35,000  Climbing FlightAware ADS-B
Fri 12:57:43 AM 51.9739 -4.6434 85° East 458 527 33,500  Descending FlightAware UK
Fri 12:58:01 AM 51.9973 -4.5847 85° East 481 554 35,000  Climbing FlightAware ADS-B
Fri 12:58:19 AM 51.9802 -4.5154 85° East 460 529 33,500  Descending FlightAware UK
Fri 12:58:32 AM 52.0024 -4.4749 85° East 480 552 35,000  Climbing FlightAware ADS-B
Fri 12:58:49 AM 51.9854 -4.4080 85° East 460 529 33,500  Descending FlightAware UK
Fri 12:59:03 AM 52.0076 -4.3645 85° East 481 554 35,000  Climbing FlightAware ADS-B
Fri 12:59:19 AM 51.9907 -4.2998 85° East 460 529 33,500  Descending FlightAware UK
Fri 12:59:33 AM 52.0127 -4.2546 85° East 481 554 35,000  Climbing FlightAware ADS-B
Fri 12:59:49 AM 51.9956 -4.1923 85° East 464 534 33,500  Descending FlightAware UK
Fri 01:00:03 AM 52.0175 -4.1462 85° East 481 554 35,000  Climbing FlightAware ADS-B
Fri 01:00:19 AM 52.0004 -4.0855 85° East 462 532 33,500  Descending FlightAware UK
Fri 01:00:34 AM 52.0223 -4.0356 85° East 481 554 35,000  Climbing FlightAware ADS-B
Fri 01:00:49 AM 52.0054 -3.9773 85° East 462 532 33,500 -2,727 Descending FlightAware UK
Fri 01:01:07 AM 52.0082 -3.9127 86° East 462 532 33,500 5,000 Level FlightAware UK
Fri 01:01:07 AM 52.0273 -3.9199 86° East 481 554 35,000  Climbing FlightAware ADS-B
Fri 01:01:25 AM 52.0111 -3.8482 86° East 460 529 33,500  Descending FlightAware UK
Fri 01:01:37 AM 52.0318 -3.8094 86° East 481 554 35,000  Climbing FlightAware ADS-B
Fri 01:01:55 AM 52.0157 -3.7400 86° East 462 532 33,500  Descending FlightAware UK
Fri 01:02:08 AM 52.0362 -3.6974 86° East 481 554 35,000  Climbing FlightAware ADS-B
Fri 01:02:25 AM 52.0201 -3.6332 86° East 464 534 33,500  Descending FlightAware UK
Fri 01:02:40 AM 52.0405 -3.5838 86° East 481 554 35,000  Climbing FlightAware ADS-B
Fri 01:02:55 AM 52.0244 -3.5256 86° East 460 529 33,500  Descending FlightAware UK
Fri 01:03:12 AM 52.0450 -3.4695 86° East 481 554 35,000  Climbing FlightAware ADS-B
Fri 01:03:31 AM 52.0297 -3.3956 86° East 460 529 33,500  Descending FlightAware UK
Fri 01:03:42 AM 52.0489 -3.3601 86° East 482 555 35,000  Climbing FlightAware ADS-B
Fri 01:04:01 AM 52.0341 -3.2878 86° East 460 529 33,500  Descending FlightAware UK
Fri 01:04:12 AM 52.0527 -3.2514 86° East 482 555 35,000  Climbing FlightAware ADS-B
Fri 01:04:31 AM 52.0382 -3.1792 86° East 460 529 33,500  Descending FlightAware UK
Fri 01:04:45 AM 52.0568 -3.1339 86° East 482 555 35,000  Climbing FlightAware ADS-B
Fri 01:05:01 AM 52.0420 -3.0718 86° East 460 529 33,500  Descending FlightAware UK
Fri 01:05:16 AM 52.0604 -3.0228 86° East 483 556 35,000  Climbing FlightAware ADS-B
Fri 01:05:31 AM 52.0460 -2.9628 86° East 460 529 33,500  Descending FlightAware UK
Fri 01:05:46 AM 52.0640 -2.9121 86° East 484 557 35,000  Climbing FlightAware ADS-B
Fri 01:06:01 AM 52.0498 -2.8551 86° East 462 532 33,500  Descending FlightAware UK
Fri 01:06:17 AM 52.0675 -2.8015 86° East 484 557 35,000  Climbing FlightAware ADS-B
Fri 01:06:37 AM 52.0544 -2.7242 86° East 462 532 33,500  Descending FlightAware UK
Fri 01:06:47 AM 52.0708 -2.6923 86° East 484 557 35,000  Climbing FlightAware ADS-B
Fri 01:07:07 AM 52.0580 -2.6158 86° East 464 534 33,500  Descending FlightAware UK
Fri 01:07:17 AM 52.0738 -2.5831 86° East 483 556 35,000  Climbing FlightAware ADS-B
Fri 01:07:37 AM 52.0614 -2.5077 86° East 464 534 33,500  Descending FlightAware UK
Fri 01:07:48 AM 52.0769 -2.4740 86° East 482 555 35,000  Climbing FlightAware ADS-B
Fri 01:08:07 AM 52.0648 -2.3986 86° East 464 534 33,500  Descending FlightAware UK
Fri 01:08:18 AM 52.0798 -2.3643 86° East 482 555 35,000  Climbing FlightAware ADS-B
Fri 01:08:38 AM 52.0681 -2.2897 86° East 464 534 33,500  Descending FlightAware UK
Fri 01:08:49 AM 52.0827 -2.2524 86° East 481 554 35,000  Climbing FlightAware ADS-B
Fri 01:09:08 AM 52.0715 -2.1815 86° East 464 534 33,500  Descending FlightAware UK
Fri 01:09:19 AM 52.0853 -2.1437 86° East 480 552 35,000  Climbing FlightAware ADS-B
Fri 01:09:37 AM 52.0745 -2.0742 86° East 464 534 33,500  Descending FlightAware UK
Fri 01:09:50 AM 52.0879 -2.0344 86° East 480 552 35,000  Climbing FlightAware ADS-B
Fri 01:10:08 AM 52.0774 -1.9657 86° East 462 532 33,500  Descending FlightAware UK
Fri 01:10:20 AM 52.0905 -1.9236 86° East 479 551 35,000  Climbing FlightAware ADS-B
Fri 01:10:38 AM 52.0804 -1.8572 86° East 460 529 33,500  Descending FlightAware UK
Fri 01:10:51 AM 52.0927 -1.8144 86° East 479 551 35,000  Climbing FlightAware ADS-B
Fri 01:11:08 AM 52.0831 -1.7496 86° East 462 532 33,500  Descending FlightAware UK
Fri 01:11:21 AM 52.0949 -1.7069 86° East 479 551 35,000  Climbing FlightAware ADS-B
Fri 01:11:38 AM 52.0859 -1.6426 86° East 460 529 33,500  Descending FlightAware UK
Fri 01:11:51 AM 52.0972 -1.5984 86° East 479 551 35,000  Climbing FlightAware ADS-B
Fri 01:12:08 AM 52.0884 -1.5341 86° East 460 529 33,500  Descending FlightAware UK
Fri 01:12:21 AM 52.0991 -1.4892 86° East 479 551 35,000  Climbing FlightAware ADS-B
Fri 01:12:38 AM 52.0908 -1.4263 86° East 460 529 33,500  Descending FlightAware UK
Fri 01:12:51 AM 52.1010 -1.3822 86° East 479 551 35,000  Climbing FlightAware ADS-B
Fri 01:13:08 AM 52.0932 -1.3185 86° East 460 529 33,500  Descending FlightAware UK
Fri 01:13:21 AM 52.1028 -1.2730 86° East 479 551 35,000  Climbing FlightAware ADS-B
Fri 01:13:38 AM 52.0955 -1.2099 86° East 460 529 33,500  Descending FlightAware UK
Fri 01:13:52 AM 52.1046 -1.1647 86° East 479 551 35,000  Climbing FlightAware ADS-B
Fri 01:14:08 AM 52.0979 -1.1021 86° East 462 532 33,500  Descending FlightAware UK
Fri 01:14:22 AM 52.1061 -1.0562 86° East 479 551 35,000  Climbing FlightAware ADS-B
Fri 01:14:38 AM 52.0998 -0.9935 86° East 462 532 33,500  Descending FlightAware UK
Fri 01:14:53 AM 52.1076 -0.9464 86° East 478 550 35,000  Climbing FlightAware ADS-B
Fri 01:15:08 AM 52.1018 -0.8857 86° East 462 532 33,500  Descending FlightAware UK
Fri 01:15:23 AM 52.1090 -0.8366 86° East 478 550 35,000  Climbing FlightAware ADS-B
Fri 01:15:38 AM 52.1037 -0.7778 86° East 460 529 33,500  Descending FlightAware UK
Fri 01:15:54 AM 52.1104 -0.7249 86° East 478 550 35,000  Climbing FlightAware ADS-B
Fri 01:16:14 AM 52.1058 -0.6493 86° East 458 527 33,500  Descending FlightAware UK
Fri 01:16:25 AM 52.1116 -0.6152 86° East 478 550 35,000  Climbing FlightAware ADS-B
Fri 01:16:44 AM 52.1076 -0.5416 86° East 460 529 33,500  Descending FlightAware UK
Fri 01:16:55 AM 52.1126 -0.5069 86° East 478 550 35,000  Climbing FlightAware ADS-B
Fri 01:17:14 AM 52.1091 -0.4332 86° East 460 529 33,500  Descending FlightAware UK
Fri 01:17:25 AM 52.1136 -0.3988 86° East 478 550 35,000  Climbing FlightAware ADS-B
Fri 01:17:44 AM 52.1106 -0.3254 86° East 460 529 33,500  Descending FlightAware UK
Fri 01:17:56 AM 52.1147 -0.2896 86° East 478 550 35,000  Climbing FlightAware ADS-B
Fri 01:18:14 AM 52.1119 -0.2169 86° East 458 527 33,500  Descending FlightAware UK
Fri 01:18:26 AM 52.1154 -0.1813 86° East 478 550 35,000  Climbing FlightAware ADS-B
Fri 01:18:44 AM 52.1132 -0.1089 86° East 458 527 33,500  Descending FlightAware UK
Fri 01:18:58 AM 52.1162 -0.0666 86° East 479 551 35,000  Climbing FlightAware ADS-B
Fri 01:19:15 AM 52.1145 -0.0002 86° East 460 529 33,500  Descending FlightAware UK
Fri 01:19:28 AM 52.1167 0.0419 86° East 479 551 35,000  Climbing FlightAware ADS-B
Fri 01:19:45 AM 52.1155 0.1085 86° East 460 529 33,500  Descending FlightAware UK
Fri 01:19:59 AM 52.1172 0.1525 86° East 479 551 35,000  Climbing FlightAware ADS-B
Fri 01:20:15 AM 52.1164 0.2154 86° East 460 529 33,500  Descending FlightAware UK
Fri 01:20:30 AM 52.1178 0.2630 86° East 479 551 35,000  Climbing FlightAware ADS-B
Fri 01:20:45 AM 52.1175 0.3247 86° East 460 529 33,500  Descending FlightAware UK
Fri 01:21:01 AM 52.1181 0.3764 86° East 479 551 35,000  Climbing FlightAware ADS-B
Fri 01:21:21 AM 52.1185 0.4545 86° East 460 529 33,500  Descending FlightAware UK
Fri 01:21:26 AM 52.1183 0.4649 86° East 479 551 35,000  Climbing FlightAware ADS-B
Fri 01:21:45 AM 52.1213 0.5411 86° East 462 532 33,500  Descending FlightAware UK
Fri 01:22:00 AM 52.1236 0.5854 86° East 480 552 35,000  Climbing FlightAware ADS-B
Fri 01:22:15 AM 52.1282 0.6496 86° East 460 529 33,500  Descending FlightAware UK
Fri 01:22:31 AM 52.1303 0.6971 86° East 480 552 35,000  Climbing FlightAware ADS-B
Fri 01:22:51 AM 52.1364 0.7791 86° East 460 529 33,500  Descending FlightAware UK
Fri 01:23:09 AM 52.1386 0.8355 86° East 479 551 35,000  Climbing FlightAware ADS-B
Fri 01:23:27 AM 52.1446 0.9087 86° East 458 527 33,500  Descending FlightAware UK
Fri 01:23:40 AM 52.1453 0.9451 86° East 480 552 35,000  Climbing FlightAware ADS-B
Fri 01:23:57 AM 52.1516 1.0166 86° East 456 525 33,500  Descending FlightAware UK
Fri 01:24:11 AM 52.1521 1.0555 86° East 481 554 35,000  Climbing FlightAware ADS-B
Fri 01:24:27 AM 52.1590 1.1253 86° East 456 525 33,500  Descending FlightAware UK
Fri 01:24:43 AM 52.1593 1.1711 86° East 481 554 35,000 -500 Climbing FlightAware ADS-B
Fri 01:25:03 AM 52.1674 1.2550 86° East 460 529 33,200 -1,313 Descending FlightAware UK
Fri 01:25:15 AM 52.1664 1.2849 86° East 485 558 34,300 -2,000 Climbing FlightAware ADS-B
Fri 01:25:33 AM 52.1744 1.3637 86° East 466 536 32,200 -1,800 Descending FlightAware UK
Fri 01:25:45 AM 52.1732 1.3944 86° East 479 551 33,400 2,500 Climbing FlightAware ADS-B
Fri 01:25:57 AM 52.1762 1.4358 83° East 478 550 33,200 -4,000 Descending FlightAware ADS-B
Fri 01:26:15 AM 52.1884 1.5134 83° East 462 532 31,400 -800 Descending FlightAware UK
Fri 01:26:27 AM 52.1892 1.5408 83° East 467 537 32,800 -1,400 Climbing FlightAware ADS-B
Fri 01:26:45 AM 52.2030 1.6166 83° East 448 516 30,700 -1,800 Descending FlightAware UK
Fri 01:26:57 AM 52.2040 1.6435 83° East 462 532 31,900 -1,400 Climbing FlightAware ADS-B
Fri 01:27:15 AM 52.2181 1.7183 83° East 446 513 30,000 -1,412 Descending FlightAware UK
Fri 01:27:31 AM 52.2206 1.7555 83° East 452 520 31,100 -1,935 Climbing FlightAware ADS-B
Fri 01:27:46 AM 52.2332 1.8186 83° East 438 504 29,000 -1,742 Descending FlightAware UK
Fri 01:28:02 AM 52.2353 1.8565 83° East 441 507 30,200 -1,667 Climbing FlightAware ADS-B
Fri 01:28:22 AM 52.2505 1.9351 83° East 430 495 28,000 -1,941 Descending FlightAware UK
Fri 01:28:36 AM 52.2511 1.9651 83° East 432 497 29,100 -2,000 Climbing FlightAware ADS-B
Fri 01:28:52 AM 52.2642 2.0307 83° East 418 481 27,000 -2,000 Descending FlightAware UK
Fri 01:29:06 AM 52.2650 2.0628 83° East 428 493 28,100 -2,200 Climbing FlightAware ADS-B
Fri 01:29:22 AM 52.2777 2.1252 83° East 414 476 25,900 -2,813 Descending FlightAware UK
Fri 01:29:38 AM 52.2785 2.1591 83° East 420 483 26,600 -3,167 Climbing FlightAware ADS-B
Fri 01:29:58 AM 52.2935 2.2365 83° East 396 456 24,000 -5,842 Descending FlightAware UK
Fri 01:30:16 AM 52.3013 2.2918 77° East 394 453 22,900 -300 Descending FlightAware UK
Fri 01:30:38 AM 52.3020 2.3270 77° East 409 471 23,800 -2,000 Climbing FlightAware ADS-B
Fri 01:30:58 AM 52.3191 2.4186 77° East 384 442 21,500 -3,632 Descending FlightAware UK
Fri 01:31:16 AM 52.3266 2.4722 77° East 380 437 21,500 4,500 Level FlightAware UK
Fri 01:31:18 AM 52.3190 2.4480 77° East 397 457 23,000  Climbing FlightAware ADS-B
Fri 01:31:34 AM 52.3343 2.5244 77° East 380 437 21,500 -2,400 Descending FlightAware UK
Fri 01:31:58 AM 52.3438 2.5953 78° East 382 440 21,400 2,897 Descending FlightAware UK
Fri 01:32:03 AM 52.3370 2.5800 78° East 398 458 22,900 -1,500 Climbing FlightAware ADS-B
Fri 01:32:22 AM 52.3536 2.6658 78° East 380 437 20,800 -4,216 Descending FlightAware UK
Fri 01:32:40 AM 52.3609 2.7195 77° East 378 435 20,300 3,143 Descending FlightAware UK
Fri 01:32:43 AM 52.3530 2.6970 77° East 396 456 21,900 -1,333 Climbing FlightAware ADS-B
Fri 01:32:58 AM 52.3683 2.7732 77° East 376 433 19,900 -4,545 Descending FlightAware UK
Fri 01:33:16 AM 52.3753 2.8254 78° East 376 433 19,400 3,600 Descending FlightAware UK
Fri 01:33:18 AM 52.3670 2.7980 78° East 393 452 21,100 -1,333 Climbing FlightAware ADS-B
Fri 01:33:34 AM 52.3828 2.8784 78° East 372 428 19,000 -4,412 Descending FlightAware UK
Fri 01:33:52 AM 52.3898 2.9302 77° East 368 423 18,600 1,412 Descending FlightAware UK
Fri 01:34:08 AM 52.3870 2.9440 77° East 388 447 19,800 -1,714 Climbing FlightAware ADS-B
Fri 01:34:34 AM 52.4059 3.0497 77° East 366 421 17,400 -3,955 Descending FlightAware UK
Fri 01:34:52 AM 52.4126 3.1009 78° East 364 419 16,900 -1,667 Descending FlightAware UK
Fri 01:35:10 AM 52.4194 3.1516 77° East 360 414 16,400 -1,833 Descending FlightAware UK
Fri 01:35:28 AM 52.4266 3.2022 77° East 356 410 15,800 2,348 Descending FlightAware UK
Fri 01:35:33 AM 52.4210 3.1890 77° East 373 429 17,300 -1,750 Climbing FlightAware ADS-B
Fri 01:35:52 AM 52.4349 3.2675 77° East 352 405 15,100 -4,541 Descending FlightAware UK
Fri 01:36:10 AM 52.4416 3.3172 78° East 350 403 14,500 2,571 Descending FlightAware UK
Fri 01:36:13 AM 52.4360 3.3000 78° East 368 423 16,000 -1,667 Climbing FlightAware ADS-B
Fri 01:36:28 AM 52.4482 3.3669 78° East 348 400 14,000 -4,727 Descending FlightAware UK
Fri 01:36:46 AM 52.4549 3.4158 77° East 344 396 13,400 1,400 Descending FlightAware UK
Fri 01:36:58 AM 52.4520 3.4200 77° East 360 414 14,700 -1,600 Climbing FlightAware ADS-B
Fri 01:37:16 AM 52.4652 3.4957 77° East 342 394 12,600 -4,333 Descending FlightAware UK
Fri 01:37:34 AM 52.4714 3.5429 78° East 338 389 12,100 2,455 Descending FlightAware UK
Fri 01:37:38 AM 52.4660 3.5260 78° East 353 406 13,500 -1,750 Climbing FlightAware ADS-B
Fri 01:37:58 AM 52.4792 3.6050 78° East 336 387 11,400 -1,500 Descending FlightAware UK
Fri 01:38:18 AM 52.4790 3.6260 78° East 344 396 12,500 -1,297 Climbing FlightAware ADS-B
Fri 01:38:35 AM 52.4914 3.6976 78° East 324 373 10,600 -4,286 Descending FlightAware UK
Fri 01:38:53 AM 52.4973 3.7432 78° East 322 371 10,000 1,500 Descending FlightAware UK
Fri 01:39:03 AM 52.4940 3.7380 78° East 339 390 11,300 -1,667 Climbing FlightAware ADS-B
Fri 01:39:29 AM 52.5090 3.8331 78° East 318 366 9,000 -1,500 Descending FlightAware UK
Fri 01:39:43 AM 52.5070 3.8390 78° East 337 388 10,300 -800 Climbing FlightAware ADS-B
Fri 01:39:59 AM 52.5188 3.9091 78° East 1 1 8,600 -3,000 Descending FlightAware UK
Fri 01:40:17 AM 52.5246 3.9533 78° East 1 1 8,600 3,750 Level FlightAware UK
Fri 01:40:23 AM 52.5180 3.9350 78° East 303 349 10,100 3,714 Climbing FlightAware ADS-B
Fri 01:40:38 AM 52.5150 3.9710 98° East 290 334 9,900 -4,000 Descending FlightAware ADS-B
Fri 01:40:53 AM 52.5127 4.0290 98° East 1 1 8,100 -1,000 Descending FlightAware UK
Fri 01:41:08 AM 52.5020 4.0320 98° East 282 325 9,400 -1,333 Climbing FlightAware ADS-B
Fri 01:41:29 AM 52.4952 4.1011 98° East 1 1 7,300 -1,680 Descending FlightAware UK
Fri 01:41:33 AM 52.4900 4.0820 98° East 284 327 8,700 -1,750 Climbing FlightAware ADS-B
Fri 01:41:53 AM 52.4834 4.1495 98° East 1 1 6,600 -1,400 Descending FlightAware UK
Fri 01:42:03 AM 52.4750 4.1430 98° East 286 329 8,000 2,640 Climbing FlightAware ADS-B
Fri 01:42:18 AM 52.4680 4.1710 112° Southeast 284 327 7,700 -1,200 Descending FlightAware ADS-B
Fri 01:42:43 AM 52.4550 4.2230 112° Southeast 281 323 7,200 -3,191 Descending FlightAware ADS-B
Fri 01:43:05 AM 52.4467 4.2935 112° Southeast 1 1 5,200 -1,000 Descending FlightAware UK
Fri 01:43:13 AM 52.4420 4.2820 112° Southeast 269 310 6,700 1,579 Climbing FlightAware ADS-B
Fri 01:43:43 AM 52.4290 4.3360 112° Southeast 246 283 6,200 -1,067 Descending FlightAware ADS-B
Fri 01:43:58 AM 52.4230 4.3620 111° Southeast 241 277 5,900 -1,050 Descending FlightAware ADS-B
Fri 01:44:23 AM 52.4130 4.4020 112° Southeast 241 277 5,500 -900 Descending FlightAware ADS-B
Fri 01:44:38 AM 52.4100 4.4300 100° East 247 284 5,300 -1,000 Descending FlightAware ADS-B
Fri 01:44:53 AM 52.4160 4.4560 69° East 249 287 5,000 -1,200 Descending FlightAware ADS-B
Fri 01:45:03 AM 52.4240 4.4690 45° Northeast 246 283 4,800 -1,680 Descending FlightAware ADS-B
Fri 01:45:18 AM 52.4400 4.4820 26° Northeast 245 282 4,300 -1,733 Descending FlightAware ADS-B
Fri 01:45:48 AM 52.4720 4.5020 21° North 247 284 3,500 -1,527 Descending FlightAware ADS-B
Fri 01:46:13 AM 52.4980 4.5180 21° North 246 283 2,900 -1,200 Descending FlightAware ADS-B
Fri 01:46:28 AM 52.5140 4.5280 21° North 245 282 2,700 -667 Descending FlightAware ADS-B
Fri 01:46:58 AM 52.5430 4.5460 21° North 244 281 2,400 -400 Descending FlightAware ADS-B
Fri 01:47:13 AM 52.5540 4.5620 41° Northeast 233 268 2,400  Level FlightAware ADS-B
Fri 01:47:23 AM 52.5580 4.5780 68° East 222 255 2,400  Level FlightAware ADS-B
Fri 01:47:38 AM 52.5600 4.6030 82° East 209 241 2,400  Level FlightAware ADS-B
Fri 01:48:08 AM 52.5620 4.6470 86° East 190 219 2,400  Level FlightAware ADS-B
Fri 01:48:23 AM 52.5540 4.6660 125° Southeast 181 208 2,400  Level FlightAware ADS-B
Fri 01:48:48 AM 52.5370 4.6810 152° Southeast 178 205 2,400  Level FlightAware ADS-B
Fri 01:49:18 AM 52.5140 4.6990 155° Southeast 173 199 2,400  Level FlightAware ADS-B
Fri 01:49:33 AM 52.5020 4.7020 171° South 169 194 2,400  Level FlightAware ADS-B
Fri 01:49:58 AM 52.4820 4.7000 183° South 168 193 2,400  Level FlightAware ADS-B
Fri 01:50:23 AM 52.4630 4.6980 184° South 165 190 2,400 -545 Level FlightAware ADS-B
Fri 01:50:53 AM 52.4390 4.6960 183° South 155 178 1,900 -900 Descending FlightAware ADS-B
Fri 01:51:23 AM 52.4200 4.6940 184° South 124 143 1,500 -700 Descending FlightAware ADS-B
Fri 01:51:53 AM 52.4030 4.6930 182° South 116 133 1,200 -655 Descending FlightAware ADS-B
Fri 01:52:18 AM 52.3890 4.6910 185° South 118 136 900 -720 Descending FlightAware ADS-B
Fri 01:54:00 AM 52.3000 4.7500 78° East  Level FlightAware Approximate

Login

Don't have an account? Register now (free) for customized features, flight alerts, and more!